メインページ
METAR-TAF:

METAR-TAF

空港 :

ラルナカ国際空港

ラルナカ, キプロス

緯度: 34-53N, 経度: 033-38E, 海抜: 2m

現時点の気象観測

当レポートは6分前の07:30(UTC)に作成
南/南東の風 7kt、から南/南西の間で変化する
気温 30°C
湿度 66%
気圧 1006 hPa
視程10km以上
高度1800ftの雲はほとんどない
高度3000ftの雲は散在している

METAR: LCLK 190730Z 16007KT 100V210 9999 FEW018 SCT030 30/23 Q1006 NOSIG

時間: 10:36 (07:36 UTC)

予報

当レポートは2時間6分前の05:30(UTC)に作成
予報は19日の 06時(UTC)から 20日の 06時(UTC)まで有効
北/北西の風 7kt
視程10km以上
高度2000ftの雲はほとんどない
確率 30%
19日の 06時(UTC)から 19日の 08時(UTC)まで
視程: 5000m
高度700ftの千切れ雲あり
19日の 09時(UTC)から 19日の 12時(UTC)まで徐々に
南西の風 17kt
19日の 19時(UTC)から 19日の 22時(UTC)まで徐々に
北西の風 6kt

TAF: LCLK 190530Z 1906/2006 34007KT 9999 FEW020 PROB30 1906/1908 5000 BR BKN007 BECMG 1909/1912 22017KT BECMG 1919/1922 32006KT

4,000以上の空港の気象観測と天気予報(METAR報とTAF報)

利用可能な観測所は地図上に黄色い丸と赤い丸で示す。

丸の上にカーソルを重ねると観測所名を参照できる。

次にクリックすると気象観測と天気予報を参照できる。

マップの切り替え:黒色「×」印の緑ボタンをクリックして拡大、「-」印の緑ボタンをクリックして縮小、緑色の三角印をクリックして隣りの地図に切り替え


METAR-TAF: